sensor_id;sensor_type;location;lat;lon;timestamp;P1;durP1;ratioP1;P2;durP2;ratioP2
50367;SDS011;36281;34.132;-118.018;2023-04-03T00:01:29;12.45;;;7.30;;
50367;SDS011;36281;34.132;-118.018;2023-04-03T00:03:58;14.57;;;7.47;;
50367;SDS011;36281;34.132;-118.018;2023-04-03T00:06:27;10.55;;;6.88;;
50367;SDS011;36281;34.132;-118.018;2023-04-03T00:08:56;10.43;;;7.47;;
50367;SDS011;36281;34.132;-118.018;2023-04-03T00:11:25;12.95;;;7.65;;
50367;SDS011;36281;34.132;-118.018;2023-04-03T00:13:54;14.13;;;7.72;;
50367;SDS011;36281;34.132;-118.018;2023-04-03T00:16:23;11.82;;;7.47;;
50367;SDS011;36281;34.132;-118.018;2023-04-03T00:18:54;13.00;;;7.65;;
50367;SDS011;36281;34.132;-118.018;2023-04-03T00:21:23;15.55;;;7.40;;
50367;SDS011;36281;34.132;-118.018;2023-04-03T00:23:53;13.25;;;7.35;;
50367;SDS011;36281;34.132;-118.018;2023-04-03T00:26:22;9.82;;;7.50;;
50367;SDS011;36281;34.132;-118.018;2023-04-03T00:28:51;10.10;;;6.65;;
50367;SDS011;36281;34.132;-118.018;2023-04-03T00:31:20;13.18;;;7.13;;
50367;SDS011;36281;34.132;-118.018;2023-04-03T00:33:49;11.13;;;6.63;;
50367;SDS011;36281;34.132;-118.018;2023-04-03T00:36:20;11.85;;;6.80;;
50367;SDS011;36281;34.132;-118.018;2023-04-03T00:38:49;12.65;;;6.75;;
50367;SDS011;36281;34.132;-118.018;2023-04-03T00:41:18;12.43;;;6.72;;
50367;SDS011;36281;34.132;-118.018;2023-04-03T00:43:48;10.32;;;6.60;;
50367;SDS011;36281;34.132;-118.018;2023-04-03T00:46:17;10.50;;;5.95;;
50367;SDS011;36281;34.132;-118.018;2023-04-03T00:48:47;10.25;;;5.95;;
50367;SDS011;36281;34.132;-118.018;2023-04-03T00:51:18;9.50;;;5.90;;
50367;SDS011;36281;34.132;-118.018;2023-04-03T00:53:52;7.60;;;5.53;;
50367;SDS011;36281;34.132;-118.018;2023-04-03T00:56:27;12.63;;;5.78;;
50367;SDS011;36281;34.132;-118.018;2023-04-03T00:58:58;13.07;;;5.60;;
50367;SDS011;36281;34.132;-118.018;2023-04-03T01:01:30;10.20;;;5.07;;
50367;SDS011;36281;34.132;-118.018;2023-04-03T01:04:00;9.00;;;5.22;;
50367;SDS011;36281;34.132;-118.018;2023-04-03T01:06:32;9.35;;;5.50;;
50367;SDS011;36281;34.132;-118.018;2023-04-03T01:09:04;11.45;;;5.53;;
50367;SDS011;36281;34.132;-118.018;2023-04-03T01:11:33;7.55;;;5.22;;
50367;SDS011;36281;34.132;-118.018;2023-04-03T01:14:02;8.70;;;5.25;;
50367;SDS011;36281;34.132;-118.018;2023-04-03T01:16:33;11.55;;;5.70;;
50367;SDS011;36281;34.132;-118.018;2023-04-03T01:19:03;10.20;;;5.07;;
50367;SDS011;36281;34.132;-118.018;2023-04-03T01:21:45;9.63;;;4.97;;
50367;SDS011;36281;34.132;-118.018;2023-04-03T01:24:32;7.43;;;5.22;;
50367;SDS011;36281;34.132;-118.018;2023-04-03T01:27:04;11.93;;;5.80;;
50367;SDS011;36281;34.132;-118.018;2023-04-03T01:29:35;8.73;;;4.85;;
50367;SDS011;36281;34.132;-118.018;2023-04-03T01:32:07;9.38;;;5.13;;
50367;SDS011;36281;34.132;-118.018;2023-04-03T01:34:36;7.50;;;4.82;;
50367;SDS011;36281;34.132;-118.018;2023-04-03T01:37:05;6.68;;;4.78;;
50367;SDS011;36281;34.132;-118.018;2023-04-03T01:39:34;7.28;;;4.90;;
50367;SDS011;36281;34.132;-118.018;2023-04-03T01:42:03;10.32;;;4.72;;
50367;SDS011;36281;34.132;-118.018;2023-04-03T01:44:33;6.70;;;4.57;;
50367;SDS011;36281;34.132;-118.018;2023-04-03T01:47:02;8.63;;;4.70;;
50367;SDS011;36281;34.132;-118.018;2023-04-03T01:49:35;8.90;;;4.97;;
50367;SDS011;36281;34.132;-118.018;2023-04-03T01:52:04;9.82;;;4.65;;
50367;SDS011;36281;34.132;-118.018;2023-04-03T01:54:33;8.73;;;5.07;;
50367;SDS011;36281;34.132;-118.018;2023-04-03T01:57:02;9.57;;;4.60;;
50367;SDS011;36281;34.132;-118.018;2023-04-03T01:59:31;9.02;;;5.03;;
50367;SDS011;36281;34.132;-118.018;2023-04-03T02:02:00;8.80;;;5.07;;
50367;SDS011;36281;34.132;-118.018;2023-04-03T02:04:31;10.45;;;4.88;;
50367;SDS011;36281;34.132;-118.018;2023-04-03T02:07:00;11.10;;;4.88;;
50367;SDS011;36281;34.132;-118.018;2023-04-03T02:09:29;10.32;;;4.60;;
50367;SDS011;36281;34.132;-118.018;2023-04-03T02:11:58;6.85;;;4.78;;
50367;SDS011;36281;34.132;-118.018;2023-04-03T02:14:27;8.25;;;4.47;;
50367;SDS011;36281;34.132;-118.018;2023-04-03T02:16:57;9.23;;;4.57;;
50367;SDS011;36281;34.132;-118.018;2023-04-03T02:19:28;8.38;;;4.80;;
50367;SDS011;36281;34.132;-118.018;2023-04-03T02:21:59;8.38;;;4.60;;
50367;SDS011;36281;34.132;-118.018;2023-04-03T02:24:28;9.23;;;4.63;;
50367;SDS011;36281;34.132;-118.018;2023-04-03T02:26:57;8.40;;;4.28;;
50367;SDS011;36281;34.132;-118.018;2023-04-03T02:29:26;10.77;;;4.90;;
50367;SDS011;36281;34.132;-118.018;2023-04-03T02:31:55;9.35;;;4.30;;
50367;SDS011;36281;34.132;-118.018;2023-04-03T02:34:24;8.65;;;4.25;;
50367;SDS011;36281;34.132;-118.018;2023-04-03T02:36:55;9.18;;;4.45;;
50367;SDS011;36281;34.132;-118.018;2023-04-03T02:39:24;11.45;;;4.47;;
50367;SDS011;36281;34.132;-118.018;2023-04-03T02:41:53;12.85;;;4.28;;
50367;SDS011;36281;34.132;-118.018;2023-04-03T02:44:22;6.70;;;3.90;;
50367;SDS011;36281;34.132;-118.018;2023-04-03T02:46:52;9.75;;;4.50;;
50367;SDS011;36281;34.132;-118.018;2023-04-03T02:49:21;10.13;;;4.18;;
50367;SDS011;36281;34.132;-118.018;2023-04-03T02:51:50;9.57;;;4.30;;
50367;SDS011;36281;34.132;-118.018;2023-04-03T02:54:21;7.68;;;3.95;;
50367;SDS011;36281;34.132;-118.018;2023-04-03T02:56:50;7.15;;;4.15;;
50367;SDS011;36281;34.132;-118.018;2023-04-03T02:59:19;9.20;;;4.45;;
50367;SDS011;36281;34.132;-118.018;2023-04-03T03:01:48;8.80;;;4.07;;
50367;SDS011;36281;34.132;-118.018;2023-04-03T03:04:18;7.68;;;4.20;;
50367;SDS011;36281;34.132;-118.018;2023-04-03T03:06:47;6.88;;;4.00;;
50367;SDS011;36281;34.132;-118.018;2023-04-03T03:09:16;7.80;;;3.92;;
50367;SDS011;36281;34.132;-118.018;2023-04-03T03:11:47;12.10;;;4.40;;
50367;SDS011;36281;34.132;-118.018;2023-04-03T03:14:16;10.23;;;4.22;;
50367;SDS011;36281;34.132;-118.018;2023-04-03T03:16:45;9.60;;;4.18;;
50367;SDS011;36281;34.132;-118.018;2023-04-03T03:19:14;9.45;;;4.30;;
50367;SDS011;36281;34.132;-118.018;2023-04-03T03:21:43;9.00;;;4.22;;
50367;SDS011;36281;34.132;-118.018;2023-04-03T03:24:12;10.57;;;4.43;;
50367;SDS011;36281;34.132;-118.018;2023-04-03T03:26:43;9.90;;;3.95;;
50367;SDS011;36281;34.132;-118.018;2023-04-03T03:29:13;9.07;;;3.92;;
50367;SDS011;36281;34.132;-118.018;2023-04-03T03:31:43;7.32;;;3.95;;
50367;SDS011;36281;34.132;-118.018;2023-04-03T03:34:12;10.55;;;3.80;;
50367;SDS011;36281;34.132;-118.018;2023-04-03T03:36:41;9.23;;;4.22;;
50367;SDS011;36281;34.132;-118.018;2023-04-03T03:39:10;9.48;;;4.65;;
50367;SDS011;36281;34.132;-118.018;2023-04-03T03:41:39;7.82;;;3.55;;
50367;SDS011;36281;34.132;-118.018;2023-04-03T03:44:08;6.50;;;3.97;;
50367;SDS011;36281;34.132;-118.018;2023-04-03T03:46:39;9.27;;;4.40;;
50367;SDS011;36281;34.132;-118.018;2023-04-03T03:49:08;7.30;;;4.00;;
50367;SDS011;36281;34.132;-118.018;2023-04-03T03:51:38;6.88;;;3.50;;
50367;SDS011;36281;34.132;-118.018;2023-04-03T03:54:09;8.13;;;3.95;;
50367;SDS011;36281;34.132;-118.018;2023-04-03T03:56:38;8.25;;;3.67;;
50367;SDS011;36281;34.132;-118.018;2023-04-03T03:59:07;8.60;;;4.00;;
50367;SDS011;36281;34.132;-118.018;2023-04-03T04:01:41;7.93;;;3.70;;
50367;SDS011;36281;34.132;-118.018;2023-04-03T04:04:10;5.85;;;3.42;;
50367;SDS011;36281;34.132;-118.018;2023-04-03T04:06:39;7.32;;;3.78;;
50367;SDS011;36281;34.132;-118.018;2023-04-03T04:09:08;6.95;;;3.63;;
50367;SDS011;36281;34.132;-118.018;2023-04-03T04:11:37;7.80;;;4.07;;
50367;SDS011;36281;34.132;-118.018;2023-04-03T04:14:08;7.63;;;3.78;;
50367;SDS011;36281;34.132;-118.018;2023-04-03T04:16:38;9.02;;;4.28;;
50367;SDS011;36281;34.132;-118.018;2023-04-03T04:19:08;8.38;;;4.90;;
50367;SDS011;36281;34.132;-118.018;2023-04-03T04:21:38;8.48;;;4.13;;
50367;SDS011;36281;34.132;-118.018;2023-04-03T04:24:07;8.30;;;4.00;;
50367;SDS011;36281;34.132;-118.018;2023-04-03T04:26:36;6.35;;;3.83;;
50367;SDS011;36281;34.132;-118.018;2023-04-03T04:29:05;10.07;;;4.10;;
50367;SDS011;36281;34.132;-118.018;2023-04-03T04:31:36;7.75;;;3.67;;
50367;SDS011;36281;34.132;-118.018;2023-04-03T04:34:06;8.85;;;4.43;;
50367;SDS011;36281;34.132;-118.018;2023-04-03T04:36:36;6.70;;;4.18;;
50367;SDS011;36281;34.132;-118.018;2023-04-03T04:39:05;6.75;;;4.20;;
50367;SDS011;36281;34.132;-118.018;2023-04-03T04:41:35;8.23;;;4.32;;
50367;SDS011;36281;34.132;-118.018;2023-04-03T04:44:04;11.32;;;4.90;;
50367;SDS011;36281;34.132;-118.018;2023-04-03T04:46:33;10.63;;;4.75;;
50367;SDS011;36281;34.132;-118.018;2023-04-03T04:49:02;7.13;;;4.25;;
50367;SDS011;36281;34.132;-118.018;2023-04-03T04:51:33;7.82;;;4.07;;
50367;SDS011;36281;34.132;-118.018;2023-04-03T04:54:17;5.97;;;4.13;;
50367;SDS011;36281;34.132;-118.018;2023-04-03T04:56:46;6.25;;;4.45;;
50367;SDS011;36281;34.132;-118.018;2023-04-03T04:59:15;8.88;;;4.25;;
50367;SDS011;36281;34.132;-118.018;2023-04-03T05:01:47;7.25;;;3.97;;
50367;SDS011;36281;34.132;-118.018;2023-04-03T05:04:17;8.52;;;3.90;;
50367;SDS011;36281;34.132;-118.018;2023-04-03T05:06:47;8.98;;;3.85;;
50367;SDS011;36281;34.132;-118.018;2023-04-03T05:09:17;7.47;;;3.90;;
50367;SDS011;36281;34.132;-118.018;2023-04-03T05:11:47;9.20;;;4.20;;
50367;SDS011;36281;34.132;-118.018;2023-04-03T05:14:16;7.30;;;3.90;;
50367;SDS011;36281;34.132;-118.018;2023-04-03T05:16:45;8.43;;;4.03;;
50367;SDS011;36281;34.132;-118.018;2023-04-03T05:19:18;9.02;;;3.63;;
50367;SDS011;36281;34.132;-118.018;2023-04-03T05:21:49;8.85;;;3.63;;
50367;SDS011;36281;34.132;-118.018;2023-04-03T05:24:18;9.45;;;4.03;;
50367;SDS011;36281;34.132;-118.018;2023-04-03T05:26:47;8.10;;;3.20;;
50367;SDS011;36281;34.132;-118.018;2023-04-03T05:29:16;7.95;;;3.70;;
50367;SDS011;36281;34.132;-118.018;2023-04-03T05:31:45;7.32;;;4.07;;
50367;SDS011;36281;34.132;-118.018;2023-04-03T05:34:16;5.57;;;3.13;;
50367;SDS011;36281;34.132;-118.018;2023-04-03T05:36:46;9.57;;;3.70;;
50367;SDS011;36281;34.132;-118.018;2023-04-03T05:39:17;9.38;;;3.83;;
50367;SDS011;36281;34.132;-118.018;2023-04-03T05:41:46;7.03;;;3.75;;
50367;SDS011;36281;34.132;-118.018;2023-04-03T05:44:15;10.10;;;4.13;;
50367;SDS011;36281;34.132;-118.018;2023-04-03T05:46:44;11.27;;;3.28;;
50367;SDS011;36281;34.132;-118.018;2023-04-03T05:49:13;8.15;;;3.33;;
50367;SDS011;36281;34.132;-118.018;2023-04-03T05:51:42;9.77;;;4.03;;
50367;SDS011;36281;34.132;-118.018;2023-04-03T05:54:12;10.35;;;3.90;;
50367;SDS011;36281;34.132;-118.018;2023-04-03T05:56:47;10.45;;;3.90;;
50367;SDS011;36281;34.132;-118.018;2023-04-03T05:59:16;11.35;;;4.10;;
50367;SDS011;36281;34.132;-118.018;2023-04-03T06:01:46;11.05;;;4.40;;
50367;SDS011;36281;34.132;-118.018;2023-04-03T06:04:16;12.90;;;4.28;;
50367;SDS011;36281;34.132;-118.018;2023-04-03T06:06:47;7.88;;;3.58;;
50367;SDS011;36281;34.132;-118.018;2023-04-03T06:09:19;7.60;;;4.20;;
50367;SDS011;36281;34.132;-118.018;2023-04-03T06:11:51;12.57;;;4.35;;
50367;SDS011;36281;34.132;-118.018;2023-04-03T06:14:20;10.23;;;4.85;;
50367;SDS011;36281;34.132;-118.018;2023-04-03T06:16:49;7.43;;;4.20;;
50367;SDS011;36281;34.132;-118.018;2023-04-03T06:19:19;9.43;;;4.30;;
50367;SDS011;36281;34.132;-118.018;2023-04-03T06:21:48;8.50;;;3.60;;
50367;SDS011;36281;34.132;-118.018;2023-04-03T06:24:18;14.95;;;5.00;;
50367;SDS011;36281;34.132;-118.018;2023-04-03T06:26:49;9.27;;;3.95;;
50367;SDS011;36281;34.132;-118.018;2023-04-03T06:29:20;10.65;;;4.32;;
50367;SDS011;36281;34.132;-118.018;2023-04-03T06:31:49;10.30;;;4.25;;
50367;SDS011;36281;34.132;-118.018;2023-04-03T06:34:19;10.70;;;4.50;;
50367;SDS011;36281;34.132;-118.018;2023-04-03T06:36:48;9.25;;;4.40;;
50367;SDS011;36281;34.132;-118.018;2023-04-03T06:39:18;8.18;;;4.10;;
50367;SDS011;36281;34.132;-118.018;2023-04-03T06:41:51;11.88;;;4.63;;
50367;SDS011;36281;34.132;-118.018;2023-04-03T06:44:20;10.68;;;4.72;;
50367;SDS011;36281;34.132;-118.018;2023-04-03T06:46:49;8.55;;;4.55;;
50367;SDS011;36281;34.132;-118.018;2023-04-03T06:49:19;7.95;;;4.18;;
50367;SDS011;36281;34.132;-118.018;2023-04-03T06:51:49;9.93;;;3.80;;
50367;SDS011;36281;34.132;-118.018;2023-04-03T06:54:18;8.48;;;4.07;;
50367;SDS011;36281;34.132;-118.018;2023-04-03T06:56:47;7.03;;;3.80;;
50367;SDS011;36281;34.132;-118.018;2023-04-03T06:59:18;8.43;;;3.78;;
50367;SDS011;36281;34.132;-118.018;2023-04-03T07:01:47;8.98;;;4.05;;
50367;SDS011;36281;34.132;-118.018;2023-04-03T07:04:16;8.05;;;3.88;;
50367;SDS011;36281;34.132;-118.018;2023-04-03T07:06:47;7.20;;;3.83;;
50367;SDS011;36281;34.132;-118.018;2023-04-03T07:09:16;8.02;;;3.53;;
50367;SDS011;36281;34.132;-118.018;2023-04-03T07:11:46;7.78;;;3.70;;
50367;SDS011;36281;34.132;-118.018;2023-04-03T07:14:15;7.63;;;3.58;;
50367;SDS011;36281;34.132;-118.018;2023-04-03T07:16:45;9.93;;;3.72;;
50367;SDS011;36281;34.132;-118.018;2023-04-03T07:19:14;8.80;;;3.40;;
50367;SDS011;36281;34.132;-118.018;2023-04-03T07:21:45;9.75;;;4.03;;
50367;SDS011;36281;34.132;-118.018;2023-04-03T07:24:14;8.30;;;4.13;;
50367;SDS011;36281;34.132;-118.018;2023-04-03T07:26:44;10.38;;;3.30;;
50367;SDS011;36281;34.132;-118.018;2023-04-03T07:29:16;12.90;;;3.92;;
50367;SDS011;36281;34.132;-118.018;2023-04-03T07:31:47;15.30;;;4.43;;
50367;SDS011;36281;34.132;-118.018;2023-04-03T07:34:17;12.13;;;4.07;;
50367;SDS011;36281;34.132;-118.018;2023-04-03T07:36:46;13.82;;;4.00;;
50367;SDS011;36281;34.132;-118.018;2023-04-03T07:39:15;10.07;;;3.50;;
50367;SDS011;36281;34.132;-118.018;2023-04-03T07:41:44;11.20;;;3.72;;
50367;SDS011;36281;34.132;-118.018;2023-04-03T07:44:13;9.73;;;3.33;;
50367;SDS011;36281;34.132;-118.018;2023-04-03T07:46:42;13.15;;;3.78;;
50367;SDS011;36281;34.132;-118.018;2023-04-03T07:49:13;9.32;;;2.97;;
50367;SDS011;36281;34.132;-118.018;2023-04-03T07:51:43;10.60;;;2.83;;
50367;SDS011;36281;34.132;-118.018;2023-04-03T07:54:12;7.68;;;3.17;;
50367;SDS011;36281;34.132;-118.018;2023-04-03T07:56:41;8.73;;;3.30;;
50367;SDS011;36281;34.132;-118.018;2023-04-03T07:59:11;11.20;;;3.60;;
50367;SDS011;36281;34.132;-118.018;2023-04-03T08:01:40;10.27;;;4.05;;
50367;SDS011;36281;34.132;-118.018;2023-04-03T08:04:09;9.50;;;3.30;;
50367;SDS011;36281;34.132;-118.018;2023-04-03T08:06:41;10.38;;;3.08;;
50367;SDS011;36281;34.132;-118.018;2023-04-03T08:09:13;6.90;;;3.13;;
50367;SDS011;36281;34.132;-118.018;2023-04-03T08:11:42;7.03;;;2.88;;
50367;SDS011;36281;34.132;-118.018;2023-04-03T08:14:12;5.97;;;2.95;;
50367;SDS011;36281;34.132;-118.018;2023-04-03T08:16:46;9.40;;;3.40;;
50367;SDS011;36281;34.132;-118.018;2023-04-03T08:19:16;7.78;;;3.28;;
50367;SDS011;36281;34.132;-118.018;2023-04-03T08:21:54;11.40;;;3.78;;
50367;SDS011;36281;34.132;-118.018;2023-04-03T08:24:24;7.72;;;3.42;;
50367;SDS011;36281;34.132;-118.018;2023-04-03T08:26:53;9.45;;;3.42;;
50367;SDS011;36281;34.132;-118.018;2023-04-03T08:29:23;8.02;;;3.17;;
50367;SDS011;36281;34.132;-118.018;2023-04-03T08:31:52;9.30;;;2.60;;
50367;SDS011;36281;34.132;-118.018;2023-04-03T08:34:21;6.88;;;3.13;;
50367;SDS011;36281;34.132;-118.018;2023-04-03T08:36:50;11.25;;;3.60;;
50367;SDS011;36281;34.132;-118.018;2023-04-03T08:39:21;8.82;;;3.05;;
50367;SDS011;36281;34.132;-118.018;2023-04-03T08:41:50;8.43;;;3.20;;
50367;SDS011;36281;34.132;-118.018;2023-04-03T08:44:22;7.88;;;2.88;;
50367;SDS011;36281;34.132;-118.018;2023-04-03T08:46:56;6.32;;;2.47;;
50367;SDS011;36281;34.132;-118.018;2023-04-03T08:49:40;6.18;;;2.67;;
50367;SDS011;36281;34.132;-118.018;2023-04-03T08:52:19;11.82;;;3.10;;
50367;SDS011;36281;34.132;-118.018;2023-04-03T08:54:54;11.82;;;3.17;;
50367;SDS011;36281;34.132;-118.018;2023-04-03T08:57:27;6.97;;;2.60;;
50367;SDS011;36281;34.132;-118.018;2023-04-03T08:59:59;5.57;;;2.50;;
50367;SDS011;36281;34.132;-118.018;2023-04-03T09:02:33;6.28;;;2.40;;
50367;SDS011;36281;34.132;-118.018;2023-04-03T09:05:10;10.43;;;2.85;;
50367;SDS011;36281;34.132;-118.018;2023-04-03T09:07:42;7.15;;;2.60;;
50367;SDS011;36281;34.132;-118.018;2023-04-03T09:10:19;7.75;;;2.95;;
50367;SDS011;36281;34.132;-118.018;2023-04-03T09:12:57;8.15;;;3.03;;
50367;SDS011;36281;34.132;-118.018;2023-04-03T09:15:31;6.80;;;2.80;;
50367;SDS011;36281;34.132;-118.018;2023-04-03T09:18:05;7.78;;;2.42;;
50367;SDS011;36281;34.132;-118.018;2023-04-03T09:20:45;9.38;;;2.92;;
50367;SDS011;36281;34.132;-118.018;2023-04-03T09:23:24;5.97;;;2.40;;
50367;SDS011;36281;34.132;-118.018;2023-04-03T09:26:00;8.07;;;2.70;;
50367;SDS011;36281;34.132;-118.018;2023-04-03T09:28:34;5.78;;;2.38;;
50367;SDS011;36281;34.132;-118.018;2023-04-03T09:31:19;6.20;;;2.75;;
50367;SDS011;36281;34.132;-118.018;2023-04-03T09:33:49;9.20;;;2.60;;
50367;SDS011;36281;34.132;-118.018;2023-04-03T09:36:38;10.30;;;3.00;;
50367;SDS011;36281;34.132;-118.018;2023-04-03T09:39:10;8.45;;;2.95;;
50367;SDS011;36281;34.132;-118.018;2023-04-03T09:41:44;5.40;;;2.67;;
50367;SDS011;36281;34.132;-118.018;2023-04-03T09:44:24;8.40;;;3.20;;
50367;SDS011;36281;34.132;-118.018;2023-04-03T09:46:55;9.40;;;2.88;;
50367;SDS011;36281;34.132;-118.018;2023-04-03T09:49:24;7.43;;;2.95;;
50367;SDS011;36281;34.132;-118.018;2023-04-03T09:51:53;9.20;;;2.83;;
50367;SDS011;36281;34.132;-118.018;2023-04-03T09:54:30;12.60;;;3.25;;
50367;SDS011;36281;34.132;-118.018;2023-04-03T09:57:08;10.73;;;2.85;;
50367;SDS011;36281;34.132;-118.018;2023-04-03T09:59:42;8.68;;;3.00;;
50367;SDS011;36281;34.132;-118.018;2023-04-03T10:02:32;5.78;;;2.60;;
50367;SDS011;36281;34.132;-118.018;2023-04-03T10:05:04;8.82;;;2.97;;
50367;SDS011;36281;34.132;-118.018;2023-04-03T10:07:53;10.20;;;2.95;;
50367;SDS011;36281;34.132;-118.018;2023-04-03T10:10:37;8.32;;;2.75;;
50367;SDS011;36281;34.132;-118.018;2023-04-03T10:13:10;8.88;;;2.67;;
50367;SDS011;36281;34.132;-118.018;2023-04-03T10:15:48;10.57;;;3.03;;
50367;SDS011;36281;34.132;-118.018;2023-04-03T10:18:27;8.75;;;2.80;;
50367;SDS011;36281;34.132;-118.018;2023-04-03T10:21:02;7.10;;;3.10;;
50367;SDS011;36281;34.132;-118.018;2023-04-03T10:23:51;8.98;;;2.90;;
50367;SDS011;36281;34.132;-118.018;2023-04-03T10:26:28;11.40;;;3.33;;
50367;SDS011;36281;34.132;-118.018;2023-04-03T10:29:07;11.80;;;3.70;;
50367;SDS011;36281;34.132;-118.018;2023-04-03T10:31:50;9.07;;;3.25;;
50367;SDS011;36281;34.132;-118.018;2023-04-03T10:34:28;9.65;;;3.55;;
50367;SDS011;36281;34.132;-118.018;2023-04-03T10:37:02;9.88;;;3.17;;
50367;SDS011;36281;34.132;-118.018;2023-04-03T10:39:42;9.38;;;3.53;;
50367;SDS011;36281;34.132;-118.018;2023-04-03T10:42:23;12.10;;;3.10;;
50367;SDS011;36281;34.132;-118.018;2023-04-03T10:45:14;8.55;;;2.97;;
50367;SDS011;36281;34.132;-118.018;2023-04-03T10:47:56;9.13;;;3.40;;
50367;SDS011;36281;34.132;-118.018;2023-04-03T10:50:36;11.90;;;3.10;;
50367;SDS011;36281;34.132;-118.018;2023-04-03T10:53:14;11.85;;;3.30;;
50367;SDS011;36281;34.132;-118.018;2023-04-03T10:55:52;10.52;;;2.88;;
50367;SDS011;36281;34.132;-118.018;2023-04-03T10:58:29;11.65;;;3.20;;
50367;SDS011;36281;34.132;-118.018;2023-04-03T11:01:05;11.48;;;3.22;;
50367;SDS011;36281;34.132;-118.018;2023-04-03T11:03:39;9.35;;;3.33;;
50367;SDS011;36281;34.132;-118.018;2023-04-03T11:06:12;14.68;;;3.17;;
50367;SDS011;36281;34.132;-118.018;2023-04-03T11:08:44;8.93;;;3.40;;
50367;SDS011;36281;34.132;-118.018;2023-04-03T11:11:17;10.10;;;3.35;;
50367;SDS011;36281;34.132;-118.018;2023-04-03T11:13:50;13.43;;;3.63;;
50367;SDS011;36281;34.132;-118.018;2023-04-03T11:16:26;11.27;;;3.35;;
50367;SDS011;36281;34.132;-118.018;2023-04-03T11:19:02;13.63;;;3.50;;
50367;SDS011;36281;34.132;-118.018;2023-04-03T11:21:39;12.48;;;4.03;;
50367;SDS011;36281;34.132;-118.018;2023-04-03T11:24:15;10.90;;;3.40;;
50367;SDS011;36281;34.132;-118.018;2023-04-03T11:26:48;13.43;;;3.40;;
50367;SDS011;36281;34.132;-118.018;2023-04-03T11:29:21;10.15;;;3.75;;
50367;SDS011;36281;34.132;-118.018;2023-04-03T11:32:11;10.18;;;3.40;;
50367;SDS011;36281;34.132;-118.018;2023-04-03T11:34:57;7.90;;;3.47;;
50367;SDS011;36281;34.132;-118.018;2023-04-03T11:37:31;9.90;;;3.15;;
50367;SDS011;36281;34.132;-118.018;2023-04-03T11:40:04;12.90;;;4.30;;
50367;SDS011;36281;34.132;-118.018;2023-04-03T11:42:37;12.57;;;3.63;;
50367;SDS011;36281;34.132;-118.018;2023-04-03T11:45:29;10.13;;;3.28;;
50367;SDS011;36281;34.132;-118.018;2023-04-03T11:48:05;9.18;;;3.40;;
50367;SDS011;36281;34.132;-118.018;2023-04-03T11:50:59;9.27;;;3.42;;
50367;SDS011;36281;34.132;-118.018;2023-04-03T11:53:30;11.00;;;3.20;;
50367;SDS011;36281;34.132;-118.018;2023-04-03T11:56:03;12.80;;;3.30;;
50367;SDS011;36281;34.132;-118.018;2023-04-03T11:59:21;15.35;;;3.95;;
50367;SDS011;36281;34.132;-118.018;2023-04-03T12:01:52;13.13;;;3.85;;
50367;SDS011;36281;34.132;-118.018;2023-04-03T12:04:25;12.02;;;2.97;;
50367;SDS011;36281;34.132;-118.018;2023-04-03T12:07:00;14.98;;;3.70;;
50367;SDS011;36281;34.132;-118.018;2023-04-03T12:12:58;11.45;;;3.72;;
50367;SDS011;36281;34.132;-118.018;2023-04-03T12:24:37;14.82;;;4.47;;
50367;SDS011;36281;34.132;-118.018;2023-04-03T12:30:11;13.77;;;4.38;;
50367;SDS011;36281;34.132;-118.018;2023-04-03T12:33:04;12.93;;;4.13;;
50367;SDS011;36281;34.132;-118.018;2023-04-03T12:35:49;17.60;;;4.22;;
50367;SDS011;36281;34.132;-118.018;2023-04-03T12:41:31;11.85;;;4.00;;
50367;SDS011;36281;34.132;-118.018;2023-04-03T12:44:19;11.65;;;4.25;;
50367;SDS011;36281;34.132;-118.018;2023-04-03T12:47:16;14.75;;;4.07;;
50367;SDS011;36281;34.132;-118.018;2023-04-03T12:49:55;14.52;;;4.50;;
50367;SDS011;36281;34.132;-118.018;2023-04-03T12:52:29;16.73;;;4.22;;
50367;SDS011;36281;34.132;-118.018;2023-04-03T12:55:07;8.70;;;4.38;;
50367;SDS011;36281;34.132;-118.018;2023-04-03T12:57:41;17.52;;;5.25;;
50367;SDS011;36281;34.132;-118.018;2023-04-03T13:00:21;16.33;;;4.75;;
50367;SDS011;36281;34.132;-118.018;2023-04-03T13:05:26;14.20;;;4.00;;
50367;SDS011;36281;34.132;-118.018;2023-04-03T13:07:58;11.27;;;4.38;;
50367;SDS011;36281;34.132;-118.018;2023-04-03T13:10:32;12.40;;;4.13;;
50367;SDS011;36281;34.132;-118.018;2023-04-03T13:13:13;13.45;;;4.55;;
50367;SDS011;36281;34.132;-118.018;2023-04-03T13:15:44;14.35;;;4.18;;
50367;SDS011;36281;34.132;-118.018;2023-04-03T13:18:23;13.75;;;4.25;;
50367;SDS011;36281;34.132;-118.018;2023-04-03T13:20:56;10.65;;;3.90;;
50367;SDS011;36281;34.132;-118.018;2023-04-03T13:23:29;12.07;;;4.20;;
50367;SDS011;36281;34.132;-118.018;2023-04-03T13:26:01;16.55;;;5.20;;
50367;SDS011;36281;34.132;-118.018;2023-04-03T13:28:31;16.75;;;4.45;;
50367;SDS011;36281;34.132;-118.018;2023-04-03T13:31:06;12.43;;;4.15;;
50367;SDS011;36281;34.132;-118.018;2023-04-03T13:33:52;15.65;;;4.38;;
50367;SDS011;36281;34.132;-118.018;2023-04-03T13:36:24;12.45;;;4.47;;
50367;SDS011;36281;34.132;-118.018;2023-04-03T13:38:58;14.23;;;5.40;;
50367;SDS011;36281;34.132;-118.018;2023-04-03T13:41:31;12.77;;;4.50;;
50367;SDS011;36281;34.132;-118.018;2023-04-03T13:44:15;14.25;;;4.75;;
50367;SDS011;36281;34.132;-118.018;2023-04-03T13:46:55;12.80;;;4.50;;
50367;SDS011;36281;34.132;-118.018;2023-04-03T13:49:29;13.85;;;4.72;;
50367;SDS011;36281;34.132;-118.018;2023-04-03T13:52:00;17.40;;;4.20;;
50367;SDS011;36281;34.132;-118.018;2023-04-03T13:54:34;9.95;;;4.10;;
50367;SDS011;36281;34.132;-118.018;2023-04-03T13:57:12;11.50;;;4.38;;
50367;SDS011;36281;34.132;-118.018;2023-04-03T13:59:43;14.32;;;4.32;;
50367;SDS011;36281;34.132;-118.018;2023-04-03T14:02:14;15.48;;;4.18;;
50367;SDS011;36281;34.132;-118.018;2023-04-03T14:04:46;10.52;;;3.97;;
50367;SDS011;36281;34.132;-118.018;2023-04-03T14:07:20;14.13;;;4.03;;
50367;SDS011;36281;34.132;-118.018;2023-04-03T14:09:50;11.35;;;3.58;;
50367;SDS011;36281;34.132;-118.018;2023-04-03T14:12:23;10.50;;;3.88;;
50367;SDS011;36281;34.132;-118.018;2023-04-03T14:14:58;8.27;;;3.65;;
50367;SDS011;36281;34.132;-118.018;2023-04-03T14:17:28;9.88;;;4.22;;
50367;SDS011;36281;34.132;-118.018;2023-04-03T14:19:59;8.93;;;3.47;;
50367;SDS011;36281;34.132;-118.018;2023-04-03T14:22:30;11.98;;;3.63;;
50367;SDS011;36281;34.132;-118.018;2023-04-03T14:25:02;13.70;;;3.88;;
50367;SDS011;36281;34.132;-118.018;2023-04-03T14:27:35;15.20;;;3.88;;
50367;SDS011;36281;34.132;-118.018;2023-04-03T14:30:06;9.18;;;3.53;;
50367;SDS011;36281;34.132;-118.018;2023-04-03T14:32:37;9.75;;;4.28;;
50367;SDS011;36281;34.132;-118.018;2023-04-03T14:35:06;8.15;;;3.40;;
50367;SDS011;36281;34.132;-118.018;2023-04-03T14:37:35;9.38;;;3.13;;
50367;SDS011;36281;34.132;-118.018;2023-04-03T14:40:05;9.77;;;3.40;;
50367;SDS011;36281;34.132;-118.018;2023-04-03T14:42:37;9.80;;;3.13;;
50367;SDS011;36281;34.132;-118.018;2023-04-03T14:45:07;10.25;;;3.50;;
50367;SDS011;36281;34.132;-118.018;2023-04-03T14:47:40;13.70;;;3.92;;
50367;SDS011;36281;34.132;-118.018;2023-04-03T14:50:14;13.73;;;4.13;;
50367;SDS011;36281;34.132;-118.018;2023-04-03T14:52:44;10.88;;;3.30;;
50367;SDS011;36281;34.132;-118.018;2023-04-03T14:55:14;9.20;;;3.22;;